createdAt,value
2023-01-03T00:00:05.748Z,4.70
2023-01-03T00:02:32.588Z,4.70
2023-01-03T00:05:05.703Z,4.80
2023-01-03T00:07:35.139Z,4.70
2023-01-03T00:10:15.666Z,4.70
2023-01-03T00:12:46.837Z,4.60
2023-01-03T00:15:22.676Z,4.60
2023-01-03T00:17:50.957Z,4.70
2023-01-03T00:20:24.632Z,4.80
2023-01-03T00:22:54.862Z,4.80
2023-01-03T00:25:28.647Z,4.90
2023-01-03T00:27:55.356Z,4.90
2023-01-03T00:30:28.713Z,4.90
2023-01-03T00:33:02.696Z,4.90
2023-01-03T00:35:35.674Z,4.90
2023-01-03T00:38:08.718Z,4.90
2023-01-03T00:40:35.612Z,4.90
2023-01-03T00:43:27.826Z,5.00
2023-01-03T00:46:00.852Z,5.00
2023-01-03T00:48:28.132Z,4.90
2023-01-03T00:51:01.707Z,4.90
2023-01-03T00:53:28.374Z,5.00
2023-01-03T00:56:02.728Z,5.00
2023-01-03T00:58:39.869Z,5.00
2023-01-03T01:01:20.790Z,5.00
2023-01-03T01:03:49.893Z,4.90
2023-01-03T01:06:25.684Z,4.90
2023-01-03T01:08:54.024Z,4.80
2023-01-03T01:11:27.704Z,4.80
2023-01-03T01:14:01.756Z,4.80
2023-01-03T01:16:30.569Z,4.80
2023-01-03T01:18:59.352Z,4.70
2023-01-03T01:21:36.941Z,4.70
2023-01-03T01:24:15.910Z,4.70
2023-01-03T01:26:51.747Z,4.70
2023-01-03T01:29:18.869Z,4.60
2023-01-03T01:31:52.769Z,4.60
2023-01-03T01:34:19.594Z,4.60
2023-01-03T01:36:53.781Z,4.60
2023-01-03T01:39:31.604Z,4.60
2023-01-03T01:42:30.756Z,4.60
2023-01-03T01:44:57.907Z,4.50
2023-01-03T01:47:37.873Z,4.50
2023-01-03T01:50:16.554Z,4.50
2023-01-03T01:52:56.828Z,4.50
2023-01-03T01:55:32.818Z,4.50
2023-01-03T01:58:07.772Z,4.40
2023-01-03T02:00:41.806Z,4.40
2023-01-03T02:03:15.940Z,4.40
2023-01-03T02:05:44.813Z,4.30
2023-01-03T02:08:17.798Z,4.30
2023-01-03T02:10:59.785Z,4.30
2023-01-03T02:13:41.916Z,4.30
2023-01-03T02:16:18.431Z,4.20
2023-01-03T02:19:09.867Z,4.20
2023-01-03T02:21:55.223Z,4.20
2023-01-03T02:24:31.821Z,4.20
2023-01-03T02:27:18.884Z,4.20
2023-01-03T02:29:51.917Z,4.20
2023-01-03T02:32:30.919Z,4.20
2023-01-03T02:35:03.401Z,4.10
2023-01-03T02:37:45.864Z,4.10
2023-01-03T02:40:42.895Z,4.20
2023-01-03T02:43:22.879Z,4.30
2023-01-03T02:45:55.768Z,4.40
2023-01-03T02:48:48.875Z,4.50
2023-01-03T02:51:19.074Z,4.60
2023-01-03T02:53:53.909Z,4.60
2023-01-03T02:56:26.538Z,4.70
2023-01-03T02:59:02.930Z,4.80
2023-01-03T03:01:30.415Z,4.80
2023-01-03T03:04:03.976Z,4.80
2023-01-03T03:06:43.152Z,4.70
2023-01-03T03:09:15.922Z,4.70
2023-01-03T03:12:08.930Z,4.70
2023-01-03T03:14:47.522Z,4.70
2023-01-03T03:17:23.897Z,4.70
2023-01-03T03:20:19.952Z,4.60
2023-01-03T03:23:11.965Z,4.60
2023-01-03T03:25:44.427Z,4.60
2023-01-03T03:28:37.951Z,4.70
2023-01-03T03:31:08.023Z,4.80
2023-01-03T03:34:04.924Z,4.90
2023-01-03T03:36:44.033Z,4.90
2023-01-03T03:39:31.744Z,4.90
2023-01-03T03:42:30.934Z,4.90
2023-01-03T03:45:06.976Z,4.80
2023-01-03T03:47:51.982Z,4.80
2023-01-03T03:50:34.652Z,4.70
2023-01-03T03:53:11.027Z,4.70
2023-01-03T03:55:41.553Z,4.60
2023-01-03T03:58:18.070Z,4.50
2023-01-03T04:00:45.212Z,4.50
2023-01-03T04:03:19.136Z,4.50
2023-01-03T04:05:59.027Z,4.50
2023-01-03T04:08:25.771Z,4.60
2023-01-03T04:10:52.740Z,4.50
2023-01-03T04:13:26.029Z,4.60
2023-01-03T04:15:52.761Z,4.60
2023-01-03T04:18:26.002Z,4.60
2023-01-03T04:20:52.762Z,4.60
2023-01-03T04:23:26.037Z,4.60
2023-01-03T04:25:52.778Z,4.60
2023-01-03T04:28:26.030Z,4.60
2023-01-03T04:30:53.892Z,4.60
2023-01-03T04:33:20.674Z,4.60
2023-01-03T04:35:54.075Z,4.60
2023-01-03T04:38:20.827Z,4.60
2023-01-03T04:40:54.048Z,4.60
2023-01-03T04:43:40.734Z,4.50
2023-01-03T04:46:14.199Z,4.50
2023-01-03T04:48:47.109Z,4.40
2023-01-03T04:51:13.995Z,4.30
2023-01-03T04:53:40.799Z,4.20
2023-01-03T04:56:14.101Z,4.20
2023-01-03T04:58:40.832Z,4.10
2023-01-03T05:01:17.174Z,4.10
2023-01-03T05:03:43.887Z,4.10
2023-01-03T05:06:12.130Z,4.10
2023-01-03T05:08:46.140Z,4.10
2023-01-03T05:11:16.220Z,4.10
2023-01-03T05:13:56.097Z,4.00
2023-01-03T05:16:23.090Z,4.00
2023-01-03T05:19:00.143Z,4.00
2023-01-03T05:21:45.527Z,4.00
2023-01-03T05:24:38.119Z,4.00
2023-01-03T05:27:12.164Z,4.00
2023-01-03T05:29:45.123Z,4.00
2023-01-03T05:32:12.005Z,3.90
2023-01-03T05:34:45.263Z,3.90
2023-01-03T05:37:11.966Z,3.90
2023-01-03T05:39:45.149Z,3.90
2023-01-03T05:42:12.033Z,3.90
2023-01-03T05:44:38.700Z,3.90
2023-01-03T05:47:12.162Z,3.90
2023-01-03T05:49:45.155Z,3.90
2023-01-03T05:52:11.855Z,3.90
2023-01-03T05:54:45.145Z,3.90
2023-01-03T05:57:12.043Z,3.90
2023-01-03T05:59:45.264Z,3.90
2023-01-03T06:02:12.135Z,3.90
2023-01-03T06:04:39.010Z,3.90
2023-01-03T06:07:12.237Z,3.90
2023-01-03T06:09:45.259Z,3.90
2023-01-03T06:12:19.245Z,3.90
2023-01-03T06:14:45.946Z,4.00
2023-01-03T06:17:38.223Z,4.00
2023-01-03T06:20:11.232Z,4.00
2023-01-03T06:22:47.191Z,4.10
2023-01-03T06:25:20.273Z,4.10
2023-01-03T06:27:47.051Z,4.20
2023-01-03T06:30:22.295Z,4.30
2023-01-03T06:32:50.374Z,4.30
2023-01-03T06:35:17.157Z,4.40
2023-01-03T06:37:50.237Z,4.40
2023-01-03T06:40:23.251Z,4.50
2023-01-03T06:42:49.975Z,4.50
2023-01-03T06:45:42.264Z,4.60
2023-01-03T06:48:34.255Z,4.60
2023-01-03T06:51:19.816Z,4.60
2023-01-03T06:53:53.271Z,4.60
2023-01-03T06:56:29.260Z,4.70
2023-01-03T06:58:56.011Z,4.70
2023-01-03T07:01:29.357Z,4.70
2023-01-03T07:03:57.287Z,4.70
2023-01-03T07:06:30.327Z,4.70
2023-01-03T07:09:03.341Z,4.80
2023-01-03T07:11:30.024Z,4.80
2023-01-03T07:14:06.323Z,4.80
2023-01-03T07:16:35.063Z,4.80
2023-01-03T07:19:02.436Z,4.80
2023-01-03T07:21:39.301Z,4.80
2023-01-03T07:24:07.065Z,4.90
2023-01-03T07:26:41.376Z,4.90
2023-01-03T07:29:09.003Z,4.90
2023-01-03T07:31:45.390Z,4.90
2023-01-03T07:34:12.187Z,4.90
2023-01-03T07:36:52.323Z,4.90
2023-01-03T07:39:19.040Z,4.90
2023-01-03T07:42:11.315Z,5.00
2023-01-03T07:44:38.036Z,5.00
2023-01-03T07:47:04.980Z,5.00
2023-01-03T07:49:38.357Z,5.10
2023-01-03T07:52:05.142Z,5.00
2023-01-03T07:54:38.479Z,5.10
2023-01-03T07:57:05.200Z,5.10
2023-01-03T07:59:32.052Z,5.10
2023-01-03T08:02:06.539Z,5.10
2023-01-03T08:04:33.367Z,5.10
2023-01-03T08:07:07.363Z,5.00
2023-01-03T08:09:52.486Z,5.00
2023-01-03T08:12:44.379Z,5.10
2023-01-03T08:15:11.102Z,5.10
2023-01-03T08:17:44.435Z,5.10
2023-01-03T08:20:17.427Z,5.20
2023-01-03T08:22:44.116Z,5.20
2023-01-03T08:25:17.407Z,5.20
2023-01-03T08:27:50.602Z,5.20
2023-01-03T08:30:17.497Z,5.30
2023-01-03T08:32:51.431Z,5.30
2023-01-03T08:35:18.276Z,5.30
2023-01-03T08:37:52.433Z,5.40
2023-01-03T08:40:19.270Z,5.40
2023-01-03T08:42:53.500Z,5.50
2023-01-03T08:45:20.270Z,5.50
2023-01-03T08:47:47.077Z,5.50
2023-01-03T08:50:20.533Z,5.60
2023-01-03T08:52:47.473Z,5.60
2023-01-03T08:55:20.429Z,5.70
2023-01-03T08:57:47.301Z,5.70
2023-01-03T09:00:21.449Z,5.70
2023-01-03T09:02:48.322Z,5.80
2023-01-03T09:05:22.552Z,5.80
2023-01-03T09:07:55.466Z,5.80
2023-01-03T09:10:22.336Z,5.90
2023-01-03T09:12:55.497Z,5.90
2023-01-03T09:15:22.223Z,5.90
2023-01-03T09:17:49.489Z,6.00
2023-01-03T09:20:23.511Z,6.00
2023-01-03T09:22:51.084Z,6.00
2023-01-03T09:25:17.845Z,6.00
2023-01-03T09:27:54.742Z,6.10
2023-01-03T09:30:21.472Z,6.10
2023-01-03T09:32:50.129Z,6.10
2023-01-03T09:35:23.842Z,6.20
2023-01-03T09:37:50.884Z,6.20
2023-01-03T09:40:17.771Z,6.20
2023-01-03T09:43:10.488Z,6.30
2023-01-03T09:45:46.662Z,6.30
2023-01-03T09:48:14.900Z,6.40
2023-01-03T09:51:16.611Z,6.40
2023-01-03T09:54:04.514Z,6.40
2023-01-03T09:56:57.805Z,6.50
2023-01-03T09:59:43.339Z,6.50
2023-01-03T10:03:13.659Z,6.50
2023-01-03T10:06:07.607Z,6.60
2023-01-03T10:08:40.986Z,6.60
2023-01-03T10:11:15.768Z,6.60
2023-01-03T10:14:15.606Z,6.60
2023-01-03T10:16:42.456Z,6.70
2023-01-03T10:19:25.886Z,6.70
2023-01-03T10:21:58.615Z,6.70
2023-01-03T10:24:35.781Z,6.70
2023-01-03T10:27:20.648Z,6.80
2023-01-03T10:29:54.763Z,6.80
2023-01-03T10:32:30.615Z,6.80
2023-01-03T10:35:12.354Z,6.80
2023-01-03T10:37:46.590Z,6.80
2023-01-03T10:40:13.800Z,6.90
2023-01-03T10:42:41.544Z,6.90
2023-01-03T10:45:23.835Z,6.90
2023-01-03T10:48:00.829Z,6.90
2023-01-03T10:50:35.917Z,6.90
2023-01-03T10:53:06.220Z,7.00
2023-01-03T10:55:34.285Z,7.00
2023-01-03T10:58:07.632Z,7.10
2023-01-03T11:00:35.984Z,7.10
2023-01-03T11:03:16.885Z,7.20
2023-01-03T11:05:49.878Z,7.20
2023-01-03T11:08:30.781Z,7.30
2023-01-03T11:10:58.492Z,7.30
2023-01-03T11:13:43.996Z,7.30
2023-01-03T11:16:18.321Z,7.40
2023-01-03T11:19:05.874Z,7.50
2023-01-03T11:21:41.460Z,7.50
2023-01-03T11:24:22.920Z,7.50
2023-01-03T11:26:49.773Z,7.60
2023-01-03T11:29:16.440Z,7.60
2023-01-03T11:31:49.839Z,7.60
2023-01-03T11:34:22.414Z,7.60
2023-01-03T11:36:58.044Z,7.60
2023-01-03T11:39:27.089Z,7.60
2023-01-03T11:42:27.704Z,7.70
2023-01-03T11:44:54.387Z,7.70
2023-01-03T11:47:46.855Z,7.60
2023-01-03T11:50:24.739Z,7.70
2023-01-03T11:53:31.111Z,7.70
2023-01-03T11:56:07.096Z,7.70
2023-01-03T11:58:48.763Z,7.70
2023-01-03T12:01:39.636Z,7.70
2023-01-03T12:04:13.078Z,7.70
2023-01-03T12:07:45.285Z,7.80
2023-01-03T12:09:58.036Z,7.80
2023-01-03T12:12:38.789Z,7.80
2023-01-03T12:15:17.181Z,7.90
2023-01-03T12:17:57.794Z,7.90
2023-01-03T12:20:32.786Z,7.90
2023-01-03T12:23:22.448Z,7.90
2023-01-03T12:25:59.838Z,8.00
2023-01-03T12:28:30.215Z,8.00
2023-01-03T12:31:16.908Z,8.00
2023-01-03T12:33:48.997Z,8.00
2023-01-03T12:36:40.767Z,8.10
2023-01-03T12:39:20.951Z,8.10
2023-01-03T12:42:01.024Z,8.20
2023-01-03T12:44:47.946Z,8.20
2023-01-03T12:47:30.252Z,8.30
2023-01-03T12:50:07.936Z,8.20
2023-01-03T12:52:35.853Z,8.20
2023-01-03T12:55:04.420Z,8.20
2023-01-03T12:57:49.169Z,8.20
2023-01-03T13:00:25.050Z,8.20
2023-01-03T13:02:58.101Z,8.10
2023-01-03T13:05:29.295Z,8.10
2023-01-03T13:08:03.947Z,8.10
2023-01-03T13:10:33.609Z,8.20
2023-01-03T13:13:01.190Z,8.20
2023-01-03T13:15:38.991Z,8.20
2023-01-03T13:18:28.044Z,8.30
2023-01-03T13:21:01.867Z,8.30
2023-01-03T13:23:37.924Z,8.40
2023-01-03T13:26:14.155Z,8.40
2023-01-03T13:28:40.886Z,8.50
2023-01-03T13:31:23.940Z,8.40
2023-01-03T13:33:58.143Z,8.50
2023-01-03T13:36:32.063Z,8.50
2023-01-03T13:39:00.137Z,8.60
2023-01-03T13:41:43.306Z,8.70
2023-01-03T13:44:19.686Z,8.80
2023-01-03T13:47:07.962Z,8.80
2023-01-03T13:49:50.383Z,8.80
2023-01-03T13:53:01.918Z,8.70
2023-01-03T13:55:54.298Z,8.70
2023-01-03T13:58:35.075Z,8.60
2023-01-03T14:01:06.052Z,8.60
2023-01-03T14:03:52.338Z,8.60
2023-01-03T14:06:19.026Z,8.50
2023-01-03T14:09:18.183Z,8.40
2023-01-03T14:11:51.091Z,8.40
2023-01-03T14:14:26.985Z,8.30
2023-01-03T14:16:56.115Z,8.30
2023-01-03T14:19:25.704Z,8.30
2023-01-03T14:22:33.229Z,8.30
2023-01-03T14:25:05.996Z,8.20
2023-01-03T14:27:36.315Z,8.20
2023-01-03T14:30:03.208Z,8.20
2023-01-03T14:32:40.970Z,8.20
2023-01-03T14:35:27.673Z,8.20
2023-01-03T14:38:06.511Z,8.20
2023-01-03T14:40:34.118Z,8.20
2023-01-03T14:43:19.278Z,8.20
2023-01-03T14:45:52.346Z,8.20
2023-01-03T14:48:30.169Z,8.10
2023-01-03T14:51:00.167Z,8.10
2023-01-03T14:53:27.674Z,8.10
2023-01-03T14:56:03.155Z,8.10
2023-01-03T14:58:35.741Z,8.00
2023-01-03T15:01:10.274Z,8.00
2023-01-03T15:03:39.762Z,8.00
2023-01-03T15:06:31.038Z,8.00
2023-01-03T15:08:58.809Z,7.90
2023-01-03T15:11:40.010Z,7.90
2023-01-03T15:14:07.298Z,7.90
2023-01-03T15:16:36.286Z,7.90
2023-01-03T15:19:26.045Z,7.90
2023-01-03T15:22:20.301Z,7.90
2023-01-03T15:24:48.066Z,7.90
2023-01-03T15:27:54.185Z,8.00
2023-01-03T15:30:25.212Z,7.90
2023-01-03T15:33:09.095Z,7.90
2023-01-03T15:35:49.057Z,7.90
2023-01-03T15:38:27.379Z,7.90
2023-01-03T15:40:54.313Z,7.90
2023-01-03T15:43:25.182Z,7.80
2023-01-03T15:46:09.228Z,7.80
2023-01-03T15:48:43.096Z,7.80
2023-01-03T15:51:09.913Z,7.80
2023-01-03T15:53:47.389Z,7.70
2023-01-03T15:56:22.483Z,7.70
2023-01-03T15:59:03.101Z,7.70
2023-01-03T16:01:42.276Z,7.70
2023-01-03T16:04:16.120Z,7.70
2023-01-03T16:06:53.273Z,7.70
2023-01-03T16:09:20.671Z,7.80
2023-01-03T16:11:49.923Z,7.80
2023-01-03T16:14:25.367Z,7.80
2023-01-03T16:16:53.840Z,7.80
2023-01-03T16:19:32.151Z,7.70
2023-01-03T16:22:33.980Z,7.70
2023-01-03T16:24:54.072Z,7.70
2023-01-03T16:27:32.123Z,7.70
2023-01-03T16:30:09.304Z,7.70
2023-01-03T16:32:36.054Z,7.70
2023-01-03T16:35:07.767Z,7.70
2023-01-03T16:37:42.175Z,7.70
2023-01-03T16:40:13.614Z,7.70
2023-01-03T16:42:50.180Z,7.70
2023-01-03T16:45:17.520Z,7.70
2023-01-03T16:47:51.498Z,7.70
2023-01-03T16:50:20.146Z,7.70
2023-01-03T16:53:03.166Z,7.70
2023-01-03T16:55:39.340Z,7.70
2023-01-03T16:58:13.030Z,7.70
2023-01-03T17:00:46.211Z,7.70
2023-01-03T17:03:23.856Z,7.70
2023-01-03T17:05:59.311Z,7.70
2023-01-03T17:08:34.727Z,7.70
2023-01-03T17:11:08.258Z,7.70
2023-01-03T17:13:36.519Z,7.70
2023-01-03T17:16:04.373Z,7.70
2023-01-03T17:18:39.237Z,7.70
2023-01-03T17:21:18.347Z,7.70
2023-01-03T17:23:45.465Z,7.70
2023-01-03T17:26:18.072Z,7.80
2023-01-03T17:28:52.512Z,7.80
2023-01-03T17:31:24.101Z,7.80
2023-01-03T17:33:51.494Z,7.80
2023-01-03T17:36:32.302Z,7.80
2023-01-03T17:39:03.583Z,7.80
2023-01-03T17:41:57.232Z,7.80
2023-01-03T17:44:30.512Z,7.80
2023-01-03T17:47:35.799Z,7.80
2023-01-03T17:50:09.401Z,7.80
2023-01-03T17:52:38.040Z,7.90
2023-01-03T17:55:07.501Z,7.90
2023-01-03T17:57:41.560Z,7.90
2023-01-03T18:00:22.120Z,7.90
2023-01-03T18:02:56.024Z,7.90
2023-01-03T18:05:27.850Z,7.90
2023-01-03T18:08:06.678Z,7.90
2023-01-03T18:10:41.801Z,7.90
2023-01-03T18:13:43.519Z,7.90
2023-01-03T18:16:18.007Z,7.90
2023-01-03T18:18:51.420Z,7.90
2023-01-03T18:21:22.787Z,7.90
2023-01-03T18:24:06.367Z,7.90
2023-01-03T18:26:39.822Z,8.00
2023-01-03T18:29:14.492Z,8.00
2023-01-03T18:31:43.024Z,7.90
2023-01-03T18:34:13.257Z,7.90
2023-01-03T18:36:48.327Z,7.90
2023-01-03T18:39:28.817Z,7.90
2023-01-03T18:42:22.815Z,7.90
2023-01-03T18:44:49.618Z,7.90
2023-01-03T18:47:17.143Z,7.90
2023-01-03T18:49:50.540Z,8.00
2023-01-03T18:52:32.595Z,8.00
2023-01-03T18:55:06.670Z,8.00
2023-01-03T18:57:33.474Z,8.00
2023-01-03T19:00:00.166Z,8.00
2023-01-03T19:02:35.666Z,8.10
2023-01-03T19:05:02.451Z,8.10
2023-01-03T19:07:31.008Z,8.10
2023-01-03T19:10:04.589Z,8.10
2023-01-03T19:12:37.337Z,8.10
2023-01-03T19:15:27.424Z,8.10
2023-01-03T19:18:02.704Z,8.10
2023-01-03T19:20:30.112Z,8.10
2023-01-03T19:23:02.104Z,8.10
2023-01-03T19:25:36.406Z,8.10
2023-01-03T19:28:04.270Z,8.10
2023-01-03T19:30:37.804Z,8.10
2023-01-03T19:33:18.478Z,8.00
2023-01-03T19:35:45.663Z,8.00
2023-01-03T19:38:13.338Z,8.00
2023-01-03T19:40:47.485Z,8.00
2023-01-03T19:43:21.251Z,8.00
2023-01-03T19:45:55.461Z,8.00
2023-01-03T19:48:23.415Z,8.00
2023-01-03T19:50:57.721Z,8.00
2023-01-03T19:53:30.455Z,8.00
2023-01-03T19:55:57.238Z,8.00
2023-01-03T19:58:35.608Z,7.90
2023-01-03T20:01:02.588Z,7.90
2023-01-03T20:03:45.999Z,8.00
2023-01-03T20:06:19.433Z,8.00
2023-01-03T20:08:52.794Z,8.00
2023-01-03T20:11:21.257Z,8.00
2023-01-03T20:13:48.215Z,8.10
2023-01-03T20:16:22.660Z,8.10
2023-01-03T20:18:49.731Z,8.00
2023-01-03T20:21:24.629Z,8.10
2023-01-03T20:23:53.712Z,8.00
2023-01-03T20:26:23.220Z,8.00
2023-01-03T20:28:57.537Z,8.10
2023-01-03T20:31:31.712Z,8.10
2023-01-03T20:33:59.812Z,8.10
2023-01-03T20:36:38.547Z,8.10
2023-01-03T20:39:05.963Z,8.10
2023-01-03T20:41:45.504Z,8.10
2023-01-03T20:44:12.199Z,8.10
2023-01-03T20:46:45.737Z,8.10
2023-01-03T20:49:15.413Z,8.10
2023-01-03T20:51:42.114Z,8.10
2023-01-03T20:54:15.563Z,8.10
2023-01-03T20:56:43.090Z,8.20
2023-01-03T20:59:26.556Z,8.20
2023-01-03T21:01:59.919Z,8.20
2023-01-03T21:04:26.760Z,8.20
2023-01-03T21:06:54.497Z,8.20
2023-01-03T21:09:27.717Z,8.20
2023-01-03T21:12:01.616Z,8.20
2023-01-03T21:14:34.847Z,8.20
2023-01-03T21:17:01.536Z,8.20
2023-01-03T21:19:28.227Z,8.20
2023-01-03T21:22:01.648Z,8.20
2023-01-03T21:24:29.488Z,8.20
2023-01-03T21:27:02.733Z,8.20
2023-01-03T21:29:29.491Z,8.30
2023-01-03T21:31:56.181Z,8.30
2023-01-03T21:34:43.606Z,8.30
2023-01-03T21:37:21.665Z,8.40
2023-01-03T21:39:49.701Z,8.40
2023-01-03T21:42:41.724Z,8.40
2023-01-03T21:45:13.307Z,8.40
2023-01-03T21:47:46.644Z,8.50
2023-01-03T21:50:19.626Z,8.50
2023-01-03T21:52:46.356Z,8.50
2023-01-03T21:55:19.663Z,8.50
2023-01-03T21:57:46.449Z,8.60
2023-01-03T22:00:19.655Z,8.60
2023-01-03T22:03:11.695Z,8.60
2023-01-03T22:05:45.816Z,8.60
2023-01-03T22:08:32.731Z,8.70
2023-01-03T22:11:05.687Z,8.70
2023-01-03T22:13:33.159Z,8.70
2023-01-03T22:16:11.070Z,8.70
2023-01-03T22:18:38.086Z,8.70
2023-01-03T22:21:09.542Z,8.70
2023-01-03T22:23:43.719Z,8.70
2023-01-03T22:26:18.680Z,8.70
2023-01-03T22:28:53.697Z,8.70
2023-01-03T22:31:22.982Z,8.70
2023-01-03T22:33:50.554Z,8.80
2023-01-03T22:36:23.749Z,8.80
2023-01-03T22:38:52.271Z,8.80
2023-01-03T22:41:25.732Z,8.80
2023-01-03T22:43:52.682Z,8.80
2023-01-03T22:46:25.800Z,8.80
2023-01-03T22:48:52.620Z,8.80
2023-01-03T22:51:25.856Z,8.80
2023-01-03T22:53:58.751Z,8.80
2023-01-03T22:56:32.349Z,8.80
2023-01-03T22:59:05.760Z,8.80
2023-01-03T23:01:32.674Z,8.80
2023-01-03T23:04:07.828Z,8.80
2023-01-03T23:06:41.759Z,8.80
2023-01-03T23:09:08.609Z,8.80
2023-01-03T23:12:00.866Z,8.80
2023-01-03T23:14:27.693Z,8.70
2023-01-03T23:17:03.816Z,8.70
2023-01-03T23:19:30.483Z,8.70
2023-01-03T23:22:04.802Z,8.70
2023-01-03T23:24:37.781Z,8.70
2023-01-03T23:27:04.561Z,8.70
2023-01-03T23:29:31.247Z,8.60
2023-01-03T23:32:04.959Z,8.60
2023-01-03T23:34:31.716Z,8.50
2023-01-03T23:36:58.443Z,8.50
2023-01-03T23:39:31.839Z,8.50
2023-01-03T23:42:04.990Z,8.50
2023-01-03T23:44:38.791Z,8.50
2023-01-03T23:47:11.445Z,8.50
2023-01-03T23:49:45.815Z,8.50
2023-01-03T23:52:12.473Z,8.50
2023-01-03T23:54:45.889Z,8.50
2023-01-03T23:57:18.861Z,8.50
2023-01-03T23:59:51.810Z,8.50
